createdAt,value
2023-02-01T00:01:10.927Z,4.30
2023-02-01T00:03:38.081Z,4.34
2023-02-01T00:06:05.433Z,4.36
2023-02-01T00:08:32.393Z,4.41
2023-02-01T00:11:12.220Z,4.47
2023-02-01T00:13:42.631Z,4.53
2023-02-01T00:16:18.737Z,4.56
2023-02-01T00:18:47.895Z,4.56
2023-02-01T00:21:17.121Z,4.58
2023-02-01T00:23:45.287Z,4.62
2023-02-01T00:26:18.115Z,4.69
2023-02-01T00:28:46.070Z,4.74
2023-02-01T00:31:13.479Z,4.77
2023-02-01T00:33:40.322Z,4.78
2023-02-01T00:36:10.383Z,4.80
2023-02-01T00:38:39.054Z,4.83
2023-02-01T00:41:28.126Z,4.86
2023-02-01T00:43:55.106Z,4.85
2023-02-01T00:46:22.708Z,4.90
2023-02-01T00:48:50.587Z,4.93
2023-02-01T00:51:25.136Z,4.96
2023-02-01T00:53:52.261Z,5.01
2023-02-01T00:56:19.287Z,5.07
2023-02-01T00:58:46.355Z,5.06
2023-02-01T01:01:23.630Z,5.09
2023-02-01T01:03:57.371Z,5.10
2023-02-01T01:06:31.780Z,5.09
2023-02-01T01:09:03.996Z,5.01
2023-02-01T01:11:34.999Z,4.96
2023-02-01T01:14:02.431Z,4.95
2023-02-01T01:16:32.051Z,4.97
2023-02-01T01:19:00.235Z,4.98
2023-02-01T01:21:27.763Z,4.99
2023-02-01T01:23:54.936Z,5.03
2023-02-01T01:26:27.547Z,5.00
2023-02-01T01:28:57.544Z,4.98
2023-02-01T01:31:25.215Z,4.99
2023-02-01T01:33:56.253Z,4.98
2023-02-01T01:36:24.854Z,4.93
2023-02-01T01:38:52.490Z,4.88
2023-02-01T01:41:24.297Z,4.92
2023-02-01T01:43:54.793Z,4.91
2023-02-01T01:46:31.990Z,4.90
2023-02-01T01:49:23.349Z,4.85
2023-02-01T01:51:59.740Z,4.82
2023-02-01T01:54:52.611Z,4.81
2023-02-01T01:57:30.180Z,4.77
2023-02-01T02:00:18.640Z,4.74
2023-02-01T02:02:54.025Z,4.68
2023-02-01T02:05:21.452Z,4.66
2023-02-01T02:07:51.899Z,4.67
2023-02-01T02:10:19.429Z,4.65
2023-02-01T02:12:49.456Z,4.66
2023-02-01T02:15:18.379Z,4.67
2023-02-01T02:17:45.187Z,4.70
2023-02-01T02:20:39.852Z,4.75
2023-02-01T02:24:00.779Z,4.76
2023-02-01T02:27:26.808Z,4.78
2023-02-01T02:30:26.036Z,4.73
2023-02-01T02:33:30.110Z,4.69
2023-02-01T02:36:34.130Z,4.67
2023-02-01T02:39:17.150Z,4.72
2023-02-01T02:42:31.830Z,4.77
2023-02-01T02:46:02.100Z,4.75
2023-02-01T02:48:52.260Z,4.76
2023-02-01T02:51:47.723Z,4.74
2023-02-01T02:54:52.033Z,4.74
2023-02-01T02:57:41.998Z,4.71
2023-02-01T03:00:34.293Z,4.78
2023-02-01T03:03:20.597Z,4.86
2023-02-01T03:05:51.541Z,4.89
2023-02-01T03:08:26.684Z,4.92
2023-02-01T03:11:09.409Z,4.96
2023-02-01T03:14:15.768Z,5.00
2023-02-01T03:16:50.887Z,5.06
2023-02-01T03:19:30.016Z,5.10
2023-02-01T03:22:10.572Z,5.11
2023-02-01T03:24:54.902Z,5.12
2023-02-01T03:27:35.926Z,5.12
2023-02-01T03:30:20.895Z,5.11
2023-02-01T03:33:01.630Z,5.08
2023-02-01T03:35:51.002Z,5.04
2023-02-01T03:38:35.384Z,5.01
2023-02-01T03:41:12.429Z,5.03
2023-02-01T03:43:59.631Z,5.02
2023-02-01T03:46:48.520Z,5.00
2023-02-01T03:49:27.751Z,4.95
2023-02-01T03:51:56.180Z,4.91
2023-02-01T03:54:26.751Z,4.86
2023-02-01T03:56:58.261Z,4.86
2023-02-01T03:59:25.963Z,4.85
2023-02-01T04:01:53.903Z,4.82
2023-02-01T04:04:21.200Z,4.78
2023-02-01T04:06:52.225Z,4.79
2023-02-01T04:09:19.917Z,4.77
2023-02-01T04:11:46.720Z,4.74
2023-02-01T04:14:13.529Z,4.73
2023-02-01T04:16:40.392Z,4.74
2023-02-01T04:19:07.299Z,4.72
2023-02-01T04:21:34.081Z,4.74
2023-02-01T04:24:01.130Z,4.74
2023-02-01T04:26:28.057Z,4.73
2023-02-01T04:28:54.888Z,4.69
2023-02-01T04:31:26.626Z,4.69
2023-02-01T04:33:55.810Z,4.68
2023-02-01T04:36:23.353Z,4.66
2023-02-01T04:38:51.618Z,4.65
2023-02-01T04:41:23.724Z,4.66
2023-02-01T04:43:53.433Z,4.65
2023-02-01T04:46:20.403Z,4.61
2023-02-01T04:48:47.204Z,4.60
2023-02-01T04:51:16.159Z,4.58
2023-02-01T04:53:43.712Z,4.60
2023-02-01T04:56:10.654Z,4.67
2023-02-01T04:58:37.872Z,4.74
2023-02-01T05:01:07.192Z,4.77
2023-02-01T05:03:35.790Z,4.80
2023-02-01T05:06:05.133Z,4.83
2023-02-01T05:08:33.578Z,4.86
2023-02-01T05:11:03.403Z,4.88
2023-02-01T05:13:49.650Z,4.93
2023-02-01T05:16:17.799Z,4.95
2023-02-01T05:18:44.735Z,4.97
2023-02-01T05:21:11.553Z,4.99
2023-02-01T05:23:58.319Z,5.03
2023-02-01T05:26:25.623Z,5.05
2023-02-01T05:28:52.953Z,5.12
2023-02-01T05:31:20.212Z,5.15
2023-02-01T05:33:47.887Z,5.16
2023-02-01T05:36:14.864Z,5.13
2023-02-01T05:38:42.152Z,5.09
2023-02-01T05:41:09.385Z,5.05
2023-02-01T05:43:36.547Z,4.98
2023-02-01T05:46:03.759Z,4.97
2023-02-01T05:48:31.110Z,4.92
2023-02-01T05:50:58.032Z,4.93
2023-02-01T05:53:24.886Z,4.93
2023-02-01T05:55:51.679Z,4.92
2023-02-01T05:58:18.538Z,4.99
2023-02-01T06:00:45.442Z,5.08
2023-02-01T06:03:12.561Z,5.10
2023-02-01T06:05:56.997Z,5.15
2023-02-01T06:08:26.595Z,5.18
2023-02-01T06:11:04.910Z,5.21
2023-02-01T06:13:34.719Z,5.25
2023-02-01T06:16:04.396Z,5.27
2023-02-01T06:18:31.729Z,5.27
2023-02-01T06:21:01.368Z,5.31
2023-02-01T06:23:30.544Z,5.36
2023-02-01T06:26:04.771Z,5.42
2023-02-01T06:28:33.664Z,5.45
2023-02-01T06:31:07.785Z,5.46
2023-02-01T06:33:36.340Z,5.46
2023-02-01T06:36:08.570Z,5.46
2023-02-01T06:38:37.264Z,5.48
2023-02-01T06:41:04.872Z,5.51
2023-02-01T06:43:33.824Z,5.58
2023-02-01T06:46:03.779Z,5.60
2023-02-01T06:48:32.052Z,5.64
2023-02-01T06:50:59.080Z,5.65
2023-02-01T06:53:26.205Z,5.67
2023-02-01T06:56:02.069Z,5.70
2023-02-01T06:58:31.905Z,5.69
2023-02-01T07:01:05.004Z,5.67
2023-02-01T07:03:31.884Z,5.67
2023-02-01T07:06:02.157Z,5.71
2023-02-01T07:08:30.517Z,5.70
2023-02-01T07:10:57.472Z,5.66
2023-02-01T07:13:24.352Z,5.65
2023-02-01T07:15:51.214Z,5.60
2023-02-01T07:18:18.167Z,5.61
2023-02-01T07:20:52.568Z,5.58
2023-02-01T07:23:20.160Z,5.57
2023-02-01T07:25:47.380Z,5.55
2023-02-01T07:28:14.613Z,5.53
2023-02-01T07:30:42.665Z,5.49
2023-02-01T07:33:09.624Z,5.45
2023-02-01T07:35:36.402Z,5.43
2023-02-01T07:38:03.203Z,5.37
2023-02-01T07:40:31.323Z,5.38
2023-02-01T07:42:58.559Z,5.36
2023-02-01T07:45:25.491Z,5.34
2023-02-01T07:47:54.398Z,5.36
2023-02-01T07:50:21.944Z,5.36
2023-02-01T07:52:49.083Z,5.38
2023-02-01T07:55:16.030Z,5.38
2023-02-01T07:57:43.100Z,5.37
2023-02-01T08:00:29.477Z,5.37
2023-02-01T08:02:59.900Z,5.40
2023-02-01T08:05:27.090Z,5.41
2023-02-01T08:07:54.263Z,5.39
2023-02-01T08:10:21.552Z,5.39
2023-02-01T08:12:49.723Z,5.39
2023-02-01T08:15:16.863Z,5.38
2023-02-01T08:17:51.559Z,5.42
2023-02-01T08:20:19.830Z,5.49
2023-02-01T08:22:46.806Z,5.49
2023-02-01T08:25:13.932Z,5.54
2023-02-01T08:27:40.793Z,5.55
2023-02-01T08:30:09.241Z,5.60
2023-02-01T08:32:36.775Z,5.65
2023-02-01T08:35:05.121Z,5.67
2023-02-01T08:37:32.701Z,5.70
2023-02-01T08:39:59.503Z,5.72
2023-02-01T08:42:49.195Z,5.74
2023-02-01T08:45:16.130Z,5.79
2023-02-01T08:47:42.967Z,5.82
2023-02-01T08:50:11.125Z,5.86
2023-02-01T08:52:38.545Z,5.85
2023-02-01T08:55:07.261Z,5.81
2023-02-01T08:57:35.497Z,5.84
2023-02-01T09:00:04.376Z,5.91
2023-02-01T09:02:31.278Z,5.94
2023-02-01T09:04:59.550Z,6.00
2023-02-01T09:07:26.380Z,6.06
2023-02-01T09:09:55.611Z,6.07
2023-02-01T09:12:22.468Z,6.08
2023-02-01T09:14:49.636Z,6.08
2023-02-01T09:17:16.833Z,6.06
2023-02-01T09:19:43.732Z,6.08
2023-02-01T09:22:10.504Z,6.12
2023-02-01T09:24:37.340Z,6.15
2023-02-01T09:27:04.527Z,6.18
2023-02-01T09:29:31.590Z,6.22
2023-02-01T09:32:03.982Z,6.26
2023-02-01T09:34:31.888Z,6.32
2023-02-01T09:36:58.785Z,6.38
2023-02-01T09:39:26.038Z,6.42
2023-02-01T09:42:16.083Z,6.47
2023-02-01T09:45:29.544Z,6.52
2023-02-01T09:48:03.921Z,6.55
2023-02-01T09:50:40.750Z,6.61
2023-02-01T09:53:30.389Z,6.63
2023-02-01T09:56:07.468Z,6.69
2023-02-01T09:58:38.641Z,6.78
2023-02-01T10:01:18.068Z,6.87
2023-02-01T10:03:45.128Z,6.94
2023-02-01T10:06:46.090Z,7.00
2023-02-01T10:09:36.687Z,7.08
2023-02-01T10:12:43.540Z,7.16
2023-02-01T10:15:16.513Z,7.21
2023-02-01T10:18:07.596Z,7.21
2023-02-01T10:21:23.879Z,7.22
2023-02-01T10:24:18.539Z,7.22
2023-02-01T10:26:53.961Z,7.20
2023-02-01T10:29:34.101Z,7.16
2023-02-01T10:32:02.435Z,7.16
2023-02-01T10:34:35.958Z,7.11
2023-02-01T10:37:29.001Z,7.06
2023-02-01T10:40:22.777Z,7.05
2023-02-01T10:42:54.630Z,7.01
2023-02-01T10:45:28.786Z,6.99
2023-02-01T10:47:59.972Z,7.03
2023-02-01T10:50:47.416Z,7.01
2023-02-01T10:53:28.442Z,7.00
2023-02-01T10:55:56.609Z,6.99
2023-02-01T10:58:32.771Z,7.01
2023-02-01T11:01:07.182Z,7.04
2023-02-01T11:03:58.637Z,7.06
2023-02-01T11:06:39.795Z,7.03
2023-02-01T11:09:10.029Z,6.96
2023-02-01T11:11:48.821Z,6.97
2023-02-01T11:14:26.278Z,7.00
2023-02-01T11:17:01.147Z,7.03
2023-02-01T11:19:29.695Z,7.04
2023-02-01T11:22:02.048Z,7.05
2023-02-01T11:24:39.345Z,7.03
2023-02-01T11:27:26.627Z,7.00
2023-02-01T11:30:03.177Z,7.02
2023-02-01T11:32:31.890Z,7.05
2023-02-01T11:35:04.770Z,7.10
2023-02-01T11:37:38.426Z,7.10
2023-02-01T11:40:28.467Z,7.13
2023-02-01T11:43:30.150Z,7.17
2023-02-01T11:46:02.000Z,7.19
2023-02-01T11:48:33.711Z,7.21
2023-02-01T11:51:34.509Z,7.22
2023-02-01T11:54:13.633Z,7.27
2023-02-01T11:57:01.715Z,7.27
2023-02-01T11:59:57.136Z,7.27
2023-02-01T12:02:41.909Z,7.31
2023-02-01T12:05:47.474Z,7.30
2023-02-01T12:08:42.383Z,7.32
2023-02-01T12:11:48.432Z,7.33
2023-02-01T12:14:47.140Z,7.21
2023-02-01T12:17:19.469Z,7.07
2023-02-01T12:20:26.478Z,7.04
2023-02-01T12:23:27.672Z,7.13
2023-02-01T12:26:28.510Z,7.21
2023-02-01T12:29:16.391Z,7.25
2023-02-01T12:32:19.677Z,7.29
2023-02-01T12:35:03.726Z,7.28
2023-02-01T12:37:56.630Z,7.30
2023-02-01T12:40:41.695Z,7.29
2023-02-01T12:43:26.314Z,7.29
2023-02-01T12:46:03.223Z,7.32
2023-02-01T12:48:44.009Z,7.35
2023-02-01T12:51:19.308Z,7.35
2023-02-01T12:54:03.255Z,7.41
2023-02-01T12:56:45.993Z,7.48
2023-02-01T12:59:30.850Z,7.58
2023-02-01T13:02:15.611Z,7.73
2023-02-01T13:05:12.684Z,8.01
2023-02-01T13:07:52.854Z,8.17
2023-02-01T13:10:34.146Z,8.19
2023-02-01T13:13:41.030Z,8.17
2023-02-01T13:16:30.195Z,8.05
2023-02-01T13:19:23.738Z,8.04
2023-02-01T13:22:02.931Z,8.10
2023-02-01T13:24:43.854Z,8.25
2023-02-01T13:27:18.963Z,8.36
2023-02-01T13:30:00.777Z,8.39
2023-02-01T13:33:50.217Z,8.34
2023-02-01T13:35:59.176Z,8.31
2023-02-01T13:39:05.925Z,8.25
2023-02-01T13:41:52.199Z,8.23
2023-02-01T13:44:46.532Z,8.26
2023-02-01T13:47:36.729Z,8.26
2023-02-01T13:50:23.180Z,8.31
2023-02-01T13:52:59.301Z,8.34
2023-02-01T13:55:50.669Z,8.35
2023-02-01T13:58:41.408Z,8.25
2023-02-01T14:01:23.579Z,8.17
2023-02-01T14:04:00.718Z,8.14
2023-02-01T14:06:28.239Z,8.10
2023-02-01T14:09:20.045Z,8.05
2023-02-01T14:11:58.914Z,8.03
2023-02-01T14:14:25.729Z,7.99
2023-02-01T14:16:55.780Z,7.92
2023-02-01T14:19:34.087Z,7.84
2023-02-01T14:22:22.300Z,7.80
2023-02-01T14:24:56.559Z,7.79
2023-02-01T14:27:31.927Z,7.81
2023-02-01T14:30:03.405Z,7.81
2023-02-01T14:32:35.959Z,7.83
2023-02-01T14:35:25.635Z,7.83
2023-02-01T14:38:03.657Z,7.80
2023-02-01T14:40:32.095Z,7.81
2023-02-01T14:42:59.096Z,7.84
2023-02-01T14:45:29.041Z,7.86
2023-02-01T14:48:08.311Z,7.87
2023-02-01T14:50:41.696Z,7.88
2023-02-01T14:53:14.481Z,7.88
2023-02-01T14:55:51.251Z,7.86
2023-02-01T14:58:42.851Z,7.86
2023-02-01T15:01:19.080Z,7.89
2023-02-01T15:03:57.545Z,7.90
2023-02-01T15:06:40.905Z,7.90
2023-02-01T15:09:17.998Z,7.86
2023-02-01T15:12:12.843Z,7.84
2023-02-01T15:15:11.469Z,7.84
2023-02-01T15:17:38.872Z,7.81
2023-02-01T15:20:19.103Z,7.79
2023-02-01T15:23:03.469Z,7.77
2023-02-01T15:25:36.406Z,7.75
2023-02-01T15:28:04.511Z,7.74
2023-02-01T15:30:35.508Z,7.71
2023-02-01T15:33:21.299Z,7.67
2023-02-01T15:35:52.068Z,7.66
2023-02-01T15:38:24.908Z,7.66
2023-02-01T15:41:06.923Z,7.65
2023-02-01T15:43:37.997Z,7.64
2023-02-01T15:46:16.595Z,7.63
2023-02-01T15:48:54.515Z,7.61
2023-02-01T15:51:26.049Z,7.61
2023-02-01T15:53:59.661Z,7.60
2023-02-01T15:56:34.464Z,7.60
2023-02-01T15:59:16.522Z,7.62
2023-02-01T16:01:44.546Z,7.63
2023-02-01T16:04:24.010Z,7.66
2023-02-01T16:07:05.668Z,7.65
2023-02-01T16:09:55.756Z,7.64
2023-02-01T16:12:31.881Z,7.63
2023-02-01T16:14:59.076Z,7.65
2023-02-01T16:17:25.908Z,7.66
2023-02-01T16:19:52.860Z,7.67
2023-02-01T16:22:19.845Z,7.69
2023-02-01T16:24:46.696Z,7.66
2023-02-01T16:27:13.554Z,7.68
2023-02-01T16:29:42.109Z,7.67
2023-02-01T16:32:19.930Z,7.69
2023-02-01T16:34:48.587Z,7.70
2023-02-01T16:37:23.945Z,7.69
2023-02-01T16:39:51.087Z,7.67
2023-02-01T16:42:18.440Z,7.66
2023-02-01T16:44:45.321Z,7.67
2023-02-01T16:47:23.495Z,7.67
2023-02-01T16:49:50.806Z,7.71
2023-02-01T16:52:23.526Z,7.72
2023-02-01T16:54:50.763Z,7.73
2023-02-01T16:57:23.482Z,7.76
2023-02-01T16:59:51.965Z,7.77
2023-02-01T17:02:21.915Z,7.77
2023-02-01T17:04:49.782Z,7.75
2023-02-01T17:07:19.629Z,7.74
2023-02-01T17:09:47.728Z,7.74
2023-02-01T17:12:43.636Z,7.72
2023-02-01T17:15:11.877Z,7.72
2023-02-01T17:17:40.351Z,7.73
2023-02-01T17:20:08.446Z,7.76
2023-02-01T17:22:35.401Z,7.74
2023-02-01T17:25:02.265Z,7.72
2023-02-01T17:27:30.224Z,7.72
2023-02-01T17:29:57.315Z,7.75
2023-02-01T17:32:26.581Z,7.76
2023-02-01T17:34:53.904Z,7.81
2023-02-01T17:37:34.642Z,7.79
2023-02-01T17:40:02.411Z,7.79
2023-02-01T17:42:30.887Z,7.78
2023-02-01T17:45:02.674Z,7.78
2023-02-01T17:47:29.538Z,7.81
2023-02-01T17:49:56.970Z,7.83
2023-02-01T17:52:26.328Z,7.83
2023-02-01T17:54:54.217Z,7.84
2023-02-01T17:57:24.114Z,7.85
2023-02-01T17:59:51.591Z,7.84
2023-02-01T18:02:25.805Z,7.87
2023-02-01T18:04:52.832Z,7.83
2023-02-01T18:07:19.941Z,7.83
2023-02-01T18:09:46.847Z,7.83
2023-02-01T18:12:22.909Z,7.83
2023-02-01T18:14:49.780Z,7.83
2023-02-01T18:17:16.625Z,7.81
2023-02-01T18:19:43.668Z,7.82
2023-02-01T18:22:19.113Z,7.80
2023-02-01T18:24:46.106Z,7.77
2023-02-01T18:27:12.965Z,7.76
2023-02-01T18:29:39.882Z,7.75
2023-02-01T18:32:06.738Z,7.73
2023-02-01T18:34:33.619Z,7.71
2023-02-01T18:37:01.614Z,7.69
2023-02-01T18:39:28.431Z,7.71
2023-02-01T18:41:55.478Z,7.69
2023-02-01T18:44:24.171Z,7.70
2023-02-01T18:46:51.146Z,7.71
2023-02-01T18:49:19.810Z,7.71
2023-02-01T18:51:47.121Z,7.72
2023-02-01T18:54:14.246Z,7.72
2023-02-01T18:56:42.872Z,7.75
2023-02-01T18:59:11.768Z,7.77
2023-02-01T19:01:38.835Z,7.77
2023-02-01T19:04:06.688Z,7.79
2023-02-01T19:06:42.917Z,7.77
2023-02-01T19:09:09.736Z,7.80
2023-02-01T19:11:36.516Z,7.80
2023-02-01T19:14:03.346Z,7.80
2023-02-01T19:16:30.260Z,7.81
2023-02-01T19:18:57.185Z,7.84
2023-02-01T19:21:24.017Z,7.84
2023-02-01T19:23:50.884Z,7.86
2023-02-01T19:26:19.479Z,7.86
2023-02-01T19:28:47.927Z,7.87
2023-02-01T19:31:16.404Z,7.89
2023-02-01T19:33:43.812Z,7.88
2023-02-01T19:36:11.219Z,7.89
2023-02-01T19:38:38.698Z,7.89
2023-02-01T19:41:06.144Z,7.88
2023-02-01T19:43:33.422Z,7.90
2023-02-01T19:46:02.731Z,7.91
2023-02-01T19:48:31.393Z,7.94
2023-02-01T19:50:59.365Z,7.95
2023-02-01T19:53:27.993Z,7.94
2023-02-01T19:55:59.340Z,7.94
2023-02-01T19:58:26.801Z,7.95
2023-02-01T20:00:59.713Z,7.98
2023-02-01T20:03:26.920Z,7.96
2023-02-01T20:05:56.773Z,7.97
2023-02-01T20:08:24.382Z,8.00
2023-02-01T20:10:51.632Z,7.99
2023-02-01T20:13:19.078Z,7.98
2023-02-01T20:15:47.291Z,7.97
2023-02-01T20:18:15.228Z,7.94
2023-02-01T20:20:42.703Z,7.94
2023-02-01T20:23:09.586Z,7.95
2023-02-01T20:25:38.703Z,7.96
2023-02-01T20:28:05.684Z,7.93
2023-02-01T20:30:33.170Z,7.94
2023-02-01T20:33:00.211Z,7.94
2023-02-01T20:35:27.112Z,7.93
2023-02-01T20:37:54.369Z,7.94
2023-02-01T20:40:21.318Z,7.94
2023-02-01T20:42:48.663Z,7.91
2023-02-01T20:45:15.631Z,7.92
2023-02-01T20:47:43.384Z,7.93
2023-02-01T20:50:11.319Z,7.97
2023-02-01T20:52:38.138Z,8.01
2023-02-01T20:55:05.555Z,8.01
2023-02-01T20:57:32.591Z,8.01
2023-02-01T20:59:59.481Z,7.98
2023-02-01T21:02:26.772Z,8.02
2023-02-01T21:04:53.629Z,8.01
2023-02-01T21:07:20.539Z,8.00
2023-02-01T21:09:47.345Z,8.02
2023-02-01T21:12:14.306Z,8.04
2023-02-01T21:14:41.226Z,8.06
2023-02-01T21:17:08.067Z,8.08
2023-02-01T21:19:43.432Z,8.10
2023-02-01T21:22:13.225Z,8.13
2023-02-01T21:24:43.187Z,8.13
2023-02-01T21:27:10.841Z,8.17
2023-02-01T21:29:38.202Z,8.01
2023-02-01T21:32:07.817Z,7.88
2023-02-01T21:34:36.089Z,7.75
2023-02-01T21:37:03.577Z,7.67
2023-02-01T21:39:30.537Z,7.68
2023-02-01T21:42:18.534Z,7.66
2023-02-01T21:44:47.628Z,7.64
2023-02-01T21:47:18.510Z,7.65
2023-02-01T21:49:47.131Z,7.68
2023-02-01T21:52:16.708Z,7.70
2023-02-01T21:54:44.017Z,7.74
2023-02-01T21:57:13.315Z,7.76
2023-02-01T21:59:42.757Z,7.72
2023-02-01T22:02:16.217Z,7.72
2023-02-01T22:04:44.029Z,7.71
2023-02-01T22:07:11.882Z,7.72
2023-02-01T22:09:39.115Z,7.73
2023-02-01T22:12:06.466Z,7.74
2023-02-01T22:14:33.481Z,7.80
2023-02-01T22:17:00.725Z,7.83
2023-02-01T22:19:27.565Z,7.84
2023-02-01T22:21:54.607Z,7.85
2023-02-01T22:24:21.760Z,7.86
2023-02-01T22:26:49.967Z,7.83
2023-02-01T22:29:19.327Z,7.78
2023-02-01T22:31:46.771Z,7.79
2023-02-01T22:34:13.862Z,7.77
2023-02-01T22:36:40.786Z,7.72
2023-02-01T22:39:08.482Z,7.68
2023-02-01T22:41:35.545Z,7.67
2023-02-01T22:44:02.563Z,7.67
2023-02-01T22:46:31.421Z,7.65
2023-02-01T22:48:59.419Z,7.63
2023-02-01T22:51:29.722Z,7.60
2023-02-01T22:53:57.904Z,7.58
2023-02-01T22:56:30.349Z,7.59
2023-02-01T22:59:00.873Z,7.59
2023-02-01T23:01:28.373Z,7.58
2023-02-01T23:04:01.244Z,7.58
2023-02-01T23:06:29.219Z,7.60
2023-02-01T23:08:59.331Z,7.61
2023-02-01T23:11:27.662Z,7.63
2023-02-01T23:13:55.964Z,7.65
2023-02-01T23:16:23.621Z,7.66
2023-02-01T23:18:50.680Z,7.67
2023-02-01T23:21:21.338Z,7.71
2023-02-01T23:23:53.705Z,7.59
2023-02-01T23:26:22.106Z,7.45
2023-02-01T23:28:54.963Z,7.33
2023-02-01T23:31:26.013Z,7.26
2023-02-01T23:33:56.690Z,7.23
2023-02-01T23:36:26.287Z,7.24
2023-02-01T23:38:53.876Z,7.23
2023-02-01T23:41:23.187Z,7.25
2023-02-01T23:43:59.368Z,7.26
2023-02-01T23:46:44.404Z,7.32
2023-02-01T23:49:11.409Z,7.37
2023-02-01T23:51:38.563Z,7.40
2023-02-01T23:54:07.756Z,7.40
2023-02-01T23:56:41.752Z,7.43
2023-02-01T23:59:18.030Z,7.46
